createdAt,value
2017-12-20T00:04:12.243Z,1036
2017-12-20T00:09:12.457Z,1036
2017-12-20T00:14:12.256Z,1035.9
2017-12-20T00:19:12.453Z,1036
2017-12-20T00:24:12.261Z,1036
2017-12-20T00:29:12.411Z,1036
2017-12-20T00:44:12.534Z,1035.9
2017-12-20T00:49:12.646Z,1036
2017-12-20T00:54:12.710Z,1035.9
2017-12-20T00:59:12.719Z,1035.9
2017-12-20T01:04:12.679Z,1035.9
2017-12-20T01:09:12.648Z,1036
2017-12-20T01:14:12.577Z,1036.1
2017-12-20T01:19:12.591Z,1036.1
2017-12-20T01:24:12.556Z,1036.1
2017-12-20T01:29:12.691Z,1036.1
2017-12-20T01:34:12.798Z,1036.1
2017-12-20T01:39:12.619Z,1036.1
2017-12-20T01:49:12.692Z,1036
2017-12-20T01:54:12.566Z,1035.9
2017-12-20T01:59:12.566Z,1035.9
2017-12-20T02:04:12.675Z,1035.9
2017-12-20T02:34:12.890Z,1035.9
2017-12-20T02:44:12.914Z,1036
2017-12-20T02:49:12.998Z,1035.9
2017-12-20T02:54:13.183Z,1036
2017-12-20T02:59:13.138Z,1036
2017-12-20T03:04:13.064Z,1036
2017-12-20T03:09:12.899Z,1036
2017-12-20T03:14:13.118Z,1036
2017-12-20T03:19:13.037Z,1036
2017-12-20T03:24:13.301Z,1036
2017-12-20T03:29:13.195Z,1036
2017-12-20T03:34:13.118Z,1035.9
2017-12-20T03:39:13.040Z,1035.9
2017-12-20T03:44:13.076Z,1035.8
2017-12-20T03:49:13.045Z,1035.9
2017-12-20T03:54:13.055Z,1036
2017-12-20T03:59:13.087Z,1036
2017-12-20T04:04:13.120Z,1036
2017-12-20T04:09:13.000Z,1036
2017-12-20T04:14:13.056Z,1036
2017-12-20T04:19:13.117Z,1036
2017-12-20T04:49:13.162Z,1036.1
2017-12-20T04:59:13.349Z,1036.2
2017-12-20T05:04:13.250Z,1036.2
2017-12-20T05:09:13.339Z,1036.3
2017-12-20T05:14:13.156Z,1036.4
2017-12-20T05:19:13.140Z,1036.5
2017-12-20T05:24:13.185Z,1036.4
2017-12-20T05:29:13.219Z,1036.4
2017-12-20T05:34:13.320Z,1036.4
2017-12-20T05:39:13.258Z,1036.5
2017-12-20T05:44:13.373Z,1036.5
2017-12-20T05:49:13.411Z,1036.5
2017-12-20T05:54:13.353Z,1036.5
2017-12-20T05:59:13.123Z,1036.6
2017-12-20T06:04:13.176Z,1036.6
2017-12-20T06:09:13.454Z,1036.6
2017-12-20T06:14:13.166Z,1036.7
2017-12-20T06:19:13.285Z,1036.7
2017-12-20T06:24:13.253Z,1036.6
2017-12-20T06:29:13.229Z,1036.7
2017-12-20T06:34:13.172Z,1036.7
2017-12-20T06:39:13.353Z,1036.8
2017-12-20T06:44:13.138Z,1036.8
2017-12-20T06:49:13.158Z,1036.8
2017-12-20T06:54:13.314Z,1036.9
2017-12-20T06:59:13.232Z,1037
2017-12-20T07:04:13.368Z,1037
2017-12-20T07:09:13.148Z,1037.1
2017-12-20T07:14:13.344Z,1037.1
2017-12-20T07:19:13.338Z,1037.2
2017-12-20T07:24:13.224Z,1037.2
2017-12-20T07:29:13.343Z,1037.3
2017-12-20T07:34:13.264Z,1037.3
2017-12-20T07:39:13.291Z,1037.3
2017-12-20T07:44:13.450Z,1037.3
2017-12-20T07:49:13.369Z,1037.3
2017-12-20T07:54:13.205Z,1037.3
2017-12-20T07:59:13.310Z,1037.4
2017-12-20T08:04:13.367Z,1037.4
2017-12-20T08:09:13.360Z,1037.5
2017-12-20T08:14:13.501Z,1037.5
2017-12-20T08:19:13.335Z,1037.6
2017-12-20T08:24:13.367Z,1037.6
2017-12-20T08:29:13.387Z,1037.6
2017-12-20T08:34:13.310Z,1037.5
2017-12-20T08:39:13.345Z,1037.5
2017-12-20T08:44:13.379Z,1037.6
2017-12-20T08:49:13.294Z,1037.6
2017-12-20T08:54:13.311Z,1037.6
2017-12-20T08:59:23.305Z,1037.8
2017-12-20T09:04:13.396Z,1037.8
2017-12-20T09:09:13.311Z,1037.8
2017-12-20T09:14:13.389Z,1037.9
2017-12-20T09:19:13.515Z,1038
2017-12-20T09:24:13.279Z,1037.9
2017-12-20T09:29:13.291Z,1037.9
2017-12-20T09:34:13.289Z,1037.9
2017-12-20T09:39:13.396Z,1037.9
2017-12-20T09:44:13.307Z,1037.8
2017-12-20T09:49:13.340Z,1037.7
2017-12-20T09:54:13.336Z,1037.6
2017-12-20T09:59:13.413Z,1037.8
2017-12-20T10:04:13.320Z,1037.7
2017-12-20T10:09:13.401Z,1037.7
2017-12-20T10:14:13.410Z,1037.6
2017-12-20T10:19:13.464Z,1037.6
2017-12-20T10:24:13.356Z,1037.5
2017-12-20T10:29:13.393Z,1037.4
2017-12-20T10:34:13.247Z,1037.3
2017-12-20T10:39:13.477Z,1037.3
2017-12-20T10:44:13.570Z,1037.2
2017-12-20T10:49:13.423Z,1037.2
2017-12-20T10:54:13.449Z,1037.2
2017-12-20T10:59:13.271Z,1037.2
2017-12-20T11:04:13.439Z,1037.2
2017-12-20T11:09:13.268Z,1037.2
2017-12-20T11:14:13.272Z,1037.1
2017-12-20T11:19:13.380Z,1037.1
2017-12-20T11:24:13.502Z,1037.1
2017-12-20T11:29:13.408Z,1037.1
2017-12-20T11:34:13.893Z,1037.1
2017-12-20T11:39:13.532Z,1037
2017-12-20T11:44:13.448Z,1036.9
2017-12-20T11:49:13.555Z,1036.8
2017-12-20T11:54:13.742Z,1036.9
2017-12-20T11:59:13.479Z,1036.9
2017-12-20T12:04:13.547Z,1036.8
2017-12-20T12:09:13.527Z,1036.8
2017-12-20T12:14:13.477Z,1036.8
2017-12-20T12:19:13.558Z,1036.7
2017-12-20T12:24:13.491Z,1036.7
2017-12-20T12:29:13.446Z,1036.7
2017-12-20T12:34:13.595Z,1036.7
2017-12-20T12:39:13.489Z,1036.6
2017-12-20T12:44:13.401Z,1036.7
2017-12-20T12:49:13.440Z,1036.6
2017-12-20T12:54:14.268Z,1036.5
2017-12-20T12:59:13.433Z,1036.6
2017-12-20T13:04:13.562Z,1036.5
2017-12-20T13:09:13.357Z,1036.6
2017-12-20T13:14:13.548Z,1036.5
2017-12-20T13:19:13.708Z,1036.5
2017-12-20T13:24:13.446Z,1036.6
2017-12-20T13:29:13.570Z,1036.7
2017-12-20T13:34:13.431Z,1036.8
2017-12-20T13:39:13.342Z,1036.6
2017-12-20T13:44:13.556Z,1036.6
2017-12-20T13:49:13.598Z,1036.7
2017-12-20T13:54:13.387Z,1036.7
2017-12-20T13:59:13.562Z,1036.8
2017-12-20T14:04:13.559Z,1036.8
2017-12-20T14:09:13.598Z,1036.8
2017-12-20T14:14:13.365Z,1036.8
2017-12-20T14:19:13.502Z,1036.8
2017-12-20T14:24:13.385Z,1036.8
2017-12-20T14:29:13.426Z,1036.8
2017-12-20T14:34:13.541Z,1036.7
2017-12-20T14:39:13.459Z,1036.7
2017-12-20T14:44:13.452Z,1036.8
2017-12-20T14:49:13.482Z,1036.8
2017-12-20T14:54:13.574Z,1036.8
2017-12-20T14:59:13.393Z,1036.8
2017-12-20T15:04:13.404Z,1036.8
2017-12-20T15:09:13.502Z,1037
2017-12-20T15:14:13.570Z,1037
2017-12-20T15:19:23.601Z,1037.1
2017-12-20T15:24:13.474Z,1037.1
2017-12-20T15:29:13.417Z,1037.3
2017-12-20T15:34:13.739Z,1037.3
2017-12-20T15:39:14.551Z,1037.5
2017-12-20T15:44:13.650Z,1037.5
2017-12-20T15:49:13.481Z,1037.5
2017-12-20T15:54:13.579Z,1037.5
2017-12-20T15:59:13.494Z,1037.6
2017-12-20T16:04:13.499Z,1037.5
2017-12-20T16:09:13.645Z,1037.4
2017-12-20T16:14:13.552Z,1037.6
2017-12-20T16:19:13.317Z,1037.6
2017-12-20T16:24:13.351Z,1037.6
2017-12-20T16:29:13.235Z,1037.7
2017-12-20T16:34:13.248Z,1037.7
2017-12-20T16:39:13.414Z,1037.7
2017-12-20T16:44:13.283Z,1037.8
2017-12-20T16:49:13.419Z,1037.7
2017-12-20T16:54:13.537Z,1037.7
2017-12-20T16:59:13.342Z,1037.8
2017-12-20T17:04:14.058Z,1037.7
2017-12-20T17:09:13.441Z,1037.8
2017-12-20T17:14:13.376Z,1037.5
2017-12-20T17:19:13.408Z,1037.5
2017-12-20T17:24:13.432Z,1037.6
2017-12-20T17:29:15.083Z,1037.7
2017-12-20T17:34:13.347Z,1037.8
2017-12-20T17:39:13.524Z,1037.9
2017-12-20T17:44:13.334Z,1037.9
2017-12-20T17:49:13.290Z,1038
2017-12-20T17:54:13.500Z,1038
2017-12-20T17:59:14.785Z,1038.2
2017-12-20T18:04:13.643Z,1038.3
2017-12-20T18:09:13.599Z,1038.4
2017-12-20T18:14:13.482Z,1038.4
2017-12-20T18:19:13.636Z,1038.4
2017-12-20T18:24:13.749Z,1038.4
2017-12-20T18:29:23.620Z,1038.4
2017-12-20T18:34:13.732Z,1038.5
2017-12-20T18:39:13.659Z,1038.4
2017-12-20T18:44:14.583Z,1038.5
2017-12-20T18:49:13.693Z,1038.5
2017-12-20T18:54:13.726Z,1038.5
2017-12-20T18:59:13.594Z,1038.6
2017-12-20T19:04:13.617Z,1038.6
2017-12-20T19:09:13.659Z,1038.5
2017-12-20T19:14:13.687Z,1038.5
2017-12-20T19:19:13.827Z,1038.6
2017-12-20T19:24:13.840Z,1038.5
2017-12-20T19:29:20.755Z,1038.6
2017-12-20T19:34:13.580Z,1038.5
2017-12-20T19:39:13.785Z,1038.5
2017-12-20T19:44:13.607Z,1038.5
2017-12-20T19:49:13.660Z,1038.5
2017-12-20T19:54:13.818Z,1038.6
2017-12-20T19:59:13.790Z,1038.5
2017-12-20T20:04:13.765Z,1038.4
2017-12-20T20:09:14.430Z,1038.5
2017-12-20T20:14:13.766Z,1038.5
2017-12-20T20:19:13.675Z,1038.4
2017-12-20T20:24:13.765Z,1038.5
2017-12-20T20:29:13.835Z,1038.5
2017-12-20T20:34:13.674Z,1038.5
2017-12-20T20:39:13.716Z,1038.5
2017-12-20T20:44:13.800Z,1038.5
2017-12-20T20:49:13.859Z,1038.4
2017-12-20T20:54:13.870Z,1038.4
2017-12-20T20:59:13.729Z,1038.3
2017-12-20T21:04:15.591Z,1038.5
2017-12-20T21:09:13.684Z,1038.4
2017-12-20T21:14:13.835Z,1038.4
2017-12-20T21:19:13.882Z,1038.4
2017-12-20T21:24:13.743Z,1038.3
2017-12-20T21:29:13.824Z,1038.4
2017-12-20T21:34:13.726Z,1038.4
2017-12-20T21:39:13.807Z,1038.3
2017-12-20T21:44:13.822Z,1038.4
2017-12-20T21:49:13.838Z,1038.5
2017-12-20T21:54:13.684Z,1038.4
2017-12-20T21:59:13.789Z,1038.5
2017-12-20T22:04:13.635Z,1038.6
2017-12-20T22:09:13.846Z,1038.6
2017-12-20T22:14:13.663Z,1038.6
2017-12-20T22:19:23.796Z,1038.6
2017-12-20T22:24:13.808Z,1038.6
2017-12-20T22:29:13.683Z,1038.5
2017-12-20T22:34:14.001Z,1038.6
2017-12-20T22:39:13.764Z,1038.6
2017-12-20T22:44:13.856Z,1038.5
2017-12-20T22:49:13.766Z,1038.5
2017-12-20T22:54:13.698Z,1038.5
2017-12-20T22:59:13.834Z,1038.4
2017-12-20T23:04:13.736Z,1038.4
2017-12-20T23:09:13.829Z,1038.3
2017-12-20T23:14:13.706Z,1038.3
2017-12-20T23:19:13.851Z,1038.3
2017-12-20T23:24:13.671Z,1038.3
2017-12-20T23:29:13.632Z,1038.2
2017-12-20T23:34:13.924Z,1038.3
2017-12-20T23:39:13.842Z,1038.3
2017-12-20T23:44:15.004Z,1038.2
2017-12-20T23:49:13.893Z,1038.2
2017-12-20T23:54:13.742Z,1038.2
2017-12-20T23:59:13.629Z,1038.3
